Terminal Aerodrome Forecast
Issued by NWS Tulsa, OK

Home | Current Version | Previous Version | Text Only | Print | Product List | Glossary On
Versions: 1 2 3 4 5 6 7 8 9 10 11 12 13
000
FTUS44 KTSA 251700
TAFFSM
TAF
KFSM 251737Z 2518/2618 16013KT P6SM SCT250
     FM252000 17014G20KT P6SM SCT250
     FM260000 12010KT P6SM BKN250 WS020/21040KT
     FM261000 08007KT P6SM BKN025 WS020/21040KT
     FM261400 11008KT P6SM BKN015=

USA.gov is the U.S. government's official web portal to all federal, state and local government web resources and services.